Time;durP1;ratioP1;P1;durP2;ratioP2;P2;SDS_P1;SDS_P2;PMS_P1;PMS_P2;Temp;Humidity;BMP_temperature;BMP_pressure;BME280_temperature;BME280_humidity;BME280_pressure;Samples;Min_cycle;Max_cycle;Signal;HPM_P1;HPM_P2
2023/07/15 00:01:30;;;;;;;3.40;2.80;;;;;;;;;;5073024;28;20195;-49
2023/07/15 00:03:57;;;;;;;5.27;3.27;;;;;;;;;;5072832;28;20719;-50
2023/07/15 00:06:24;;;;;;;5.03;2.87;;;;;;;;;;5072922;28;20333;-50
2023/07/15 00:08:52;;;;;;;5.43;3.07;;;;;;;;;;5072772;28;20260;-49
2023/07/15 00:11:22;;;;;;;3.73;2.97;;;;;;;;;;5073042;28;20209;-51
2023/07/15 00:13:48;;;;;;;4.07;3.10;;;;;;;;;;5072862;28;20202;-49
2023/07/15 00:16:14;;;;;;;3.80;3.30;;;;;;;;;;5072405;28;20207;-50
2023/07/15 00:18:40;;;;;;;4.73;2.90;;;;;;;;;;5072894;28;20239;-49
2023/07/15 00:21:14;;;;;;;4.97;2.97;;;;;;;;;;5072654;28;20233;-50
2023/07/15 00:23:40;;;;;;;4.53;2.80;;;;;;;;;;5073274;28;20210;-49
2023/07/15 00:26:08;;;;;;;6.40;3.30;;;;;;;;;;5072391;28;20231;-49
2023/07/15 00:28:34;;;;;;;4.30;3.10;;;;;;;;;;5070388;28;20560;-49
2023/07/15 00:31:00;;;;;;;4.60;2.80;;;;;;;;;;5069998;28;20188;-49
2023/07/15 00:33:26;;;;;;;3.83;3.07;;;;;;;;;;5072625;28;20665;-49
2023/07/15 00:35:52;;;;;;;6.43;3.10;;;;;;;;;;5072643;28;20183;-52
2023/07/15 00:38:18;;;;;;;3.30;2.83;;;;;;;;;;5072580;28;20294;-50
2023/07/15 00:40:45;;;;;;;4.50;2.83;;;;;;;;;;5072408;28;20199;-51
2023/07/15 00:43:30;;;;;;;7.27;3.00;;;;;;;;;;5072240;28;20235;-51
2023/07/15 00:46:11;;;;;;;3.93;2.53;;;;;;;;;;5072411;28;20249;-51
2023/07/15 00:48:39;;;;;;;5.07;3.00;;;;;;;;;;5072520;28;20278;-50
2023/07/15 00:51:05;;;;;;;6.43;2.90;;;;;;;;;;5071892;28;20223;-49
2023/07/15 00:53:32;;;;;;;3.63;2.90;;;;;;;;;;5072281;28;20199;-49
2023/07/15 00:55:58;;;;;;;6.00;3.10;;;;;;;;;;5072003;28;20245;-51
2023/07/15 00:58:24;;;;;;;6.13;2.90;;;;;;;;;;5072247;28;20212;-50
2023/07/15 01:00:50;;;;;;;5.27;2.70;;;;;;;;;;5072069;28;20701;-50
2023/07/15 01:03:16;;;;;;;3.77;2.93;;;;;;;;;;5072043;28;20286;-51
2023/07/15 01:05:43;;;;;;;2.70;2.50;;;;;;;;;;5071928;28;20242;-52
2023/07/15 01:08:09;;;;;;;4.23;3.07;;;;;;;;;;5071951;28;20284;-50
2023/07/15 01:10:35;;;;;;;5.97;2.87;;;;;;;;;;5072105;28;20199;-49
2023/07/15 01:13:04;;;;;;;4.37;2.87;;;;;;;;;;5071809;28;20775;-51
2023/07/15 01:15:30;;;;;;;3.43;2.80;;;;;;;;;;5071880;28;20195;-49
2023/07/15 01:17:56;;;;;;;5.10;3.00;;;;;;;;;;5071907;28;20283;-50
2023/07/15 01:20:25;;;;;;;4.10;2.70;;;;;;;;;;5071918;28;20650;-49
2023/07/15 01:22:52;;;;;;;3.73;2.60;;;;;;;;;;5071777;28;20281;-50
2023/07/15 01:25:19;;;;;;;10.80;3.17;;;;;;;;;;5071782;28;20218;-51
2023/07/15 01:27:44;;;;;;;3.90;2.77;;;;;;;;;;5071607;28;20231;-51
2023/07/15 01:30:11;;;;;;;5.53;3.20;;;;;;;;;;5071709;28;20226;-51
2023/07/15 01:32:37;;;;;;;4.77;2.90;;;;;;;;;;5071856;28;20195;-50
2023/07/15 01:35:04;;;;;;;2.90;2.53;;;;;;;;;;5071592;28;20203;-50
2023/07/15 01:37:30;;;;;;;3.40;2.90;;;;;;;;;;5071912;28;20197;-51
2023/07/15 01:39:57;;;;;;;4.37;2.90;;;;;;;;;;5071527;28;20607;-49
2023/07/15 01:42:23;;;;;;;6.87;3.03;;;;;;;;;;5071462;28;20241;-49
2023/07/15 01:44:49;;;;;;;3.40;2.83;;;;;;;;;;5071487;28;20551;-49
2023/07/15 01:47:15;;;;;;;5.43;2.77;;;;;;;;;;5071475;28;20211;-49
2023/07/15 01:49:43;;;;;;;3.13;2.63;;;;;;;;;;5071741;28;20192;-49
2023/07/15 01:52:09;;;;;;;3.63;2.83;;;;;;;;;;5071613;28;20212;-49
2023/07/15 01:54:35;;;;;;;2.97;2.67;;;;;;;;;;5071552;28;20196;-49
2023/07/15 01:57:02;;;;;;;4.67;2.67;;;;;;;;;;5071441;28;20248;-50
2023/07/15 01:59:29;;;;;;;5.40;2.90;;;;;;;;;;5071488;28;20619;-49
2023/07/15 02:01:59;;;;;;;4.70;2.70;;;;;;;;;;5071453;28;20202;-50
2023/07/15 02:04:25;;;;;;;3.90;2.60;;;;;;;;;;5071533;28;20219;-49
2023/07/15 02:06:51;;;;;;;4.30;2.70;;;;;;;;;;5071346;28;20230;-51
2023/07/15 02:09:18;;;;;;;3.43;2.60;;;;;;;;;;5071332;28;20748;-51
2023/07/15 02:11:44;;;;;;;4.20;2.60;;;;;;;;;;5071341;28;20199;-50
2023/07/15 02:14:12;;;;;;;3.33;2.60;;;;;;;;;;5071598;28;20274;-50
2023/07/15 02:16:38;;;;;;;4.70;2.43;;;;;;;;;;5071745;28;20200;-50
2023/07/15 02:19:04;;;;;;;4.20;2.60;;;;;;;;;;5071132;28;20201;-49
2023/07/15 02:21:30;;;;;;;3.47;2.67;;;;;;;;;;5071288;28;20206;-50
2023/07/15 02:23:56;;;;;;;3.23;2.57;;;;;;;;;;5071214;28;20223;-50
2023/07/15 02:26:22;;;;;;;4.63;2.93;;;;;;;;;;5071399;28;20225;-49
2023/07/15 02:28:48;;;;;;;3.83;2.77;;;;;;;;;;5071252;28;20799;-50
2023/07/15 02:31:15;;;;;;;6.27;2.50;;;;;;;;;;5071011;28;20653;-49
2023/07/15 02:33:41;;;;;;;3.13;2.53;;;;;;;;;;5071197;28;20216;-50
2023/07/15 02:36:07;;;;;;;4.80;2.87;;;;;;;;;;5071100;28;20215;-51
2023/07/15 02:38:33;;;;;;;5.43;2.80;;;;;;;;;;5071045;28;20659;-50
2023/07/15 02:40:59;;;;;;;3.17;2.63;;;;;;;;;;5070929;28;20217;-50
2023/07/15 02:43:25;;;;;;;5.37;2.53;;;;;;;;;;5071095;28;20266;-51
2023/07/15 02:45:51;;;;;;;7.67;2.90;;;;;;;;;;5070997;28;20237;-50
2023/07/15 02:48:22;;;;;;;4.23;2.60;;;;;;;;;;5070955;28;20265;-49
2023/07/15 02:50:51;;;;;;;3.70;2.47;;;;;;;;;;5070919;28;20411;-50
2023/07/15 02:53:17;;;;;;;4.67;2.90;;;;;;;;;;5072204;28;20201;-51
2023/07/15 02:55:43;;;;;;;4.27;2.60;;;;;;;;;;5074366;28;20661;-49
2023/07/15 02:58:09;;;;;;;4.90;2.80;;;;;;;;;;5074528;28;20198;-50
2023/07/15 03:00:36;;;;;;;3.17;2.50;;;;;;;;;;5074478;28;20294;-49
2023/07/15 03:03:03;;;;;;;4.70;2.50;;;;;;;;;;5074324;28;20244;-50
2023/07/15 03:05:32;;;;;;;3.80;2.80;;;;;;;;;;5074238;28;20226;-52
2023/07/15 03:07:58;;;;;;;5.67;2.77;;;;;;;;;;5074116;28;20234;-50
2023/07/15 03:10:25;;;;;;;3.80;2.67;;;;;;;;;;5074336;28;20233;-50
2023/07/15 03:12:51;;;;;;;6.33;2.53;;;;;;;;;;5074205;28;20197;-50
2023/07/15 03:15:17;;;;;;;5.60;2.63;;;;;;;;;;5074123;28;20190;-51
2023/07/15 03:17:43;;;;;;;3.10;2.50;;;;;;;;;;5074137;28;20582;-50
2023/07/15 03:20:20;;;;;;;3.70;2.80;;;;;;;;;;5074089;28;20214;-49
2023/07/15 03:22:48;;;;;;;4.03;2.50;;;;;;;;;;5073987;28;20272;-49
2023/07/15 03:25:14;;;;;;;3.33;2.50;;;;;;;;;;5073900;28;20218;-49
2023/07/15 03:27:40;;;;;;;3.77;2.60;;;;;;;;;;5073488;28;20249;-49
2023/07/15 03:30:10;;;;;;;4.10;2.63;;;;;;;;;;5073063;28;20718;-49
2023/07/15 03:32:36;;;;;;;4.37;2.60;;;;;;;;;;5073811;28;20654;-50
2023/07/15 03:35:05;;;;;;;5.13;2.80;;;;;;;;;;5073791;28;20237;-50
2023/07/15 03:37:32;;;;;;;3.87;2.67;;;;;;;;;;5073615;28;20195;-51
2023/07/15 03:39:59;;;;;;;6.40;2.60;;;;;;;;;;5073585;28;20207;-50
2023/07/15 03:42:26;;;;;;;4.73;2.60;;;;;;;;;;5073815;28;20308;-50
2023/07/15 03:44:53;;;;;;;4.07;2.90;;;;;;;;;;5073609;28;20209;-49
2023/07/15 03:47:19;;;;;;;4.40;2.77;;;;;;;;;;5073457;28;20290;-49
2023/07/15 03:49:45;;;;;;;4.17;2.57;;;;;;;;;;5073609;28;20206;-50
2023/07/15 03:52:11;;;;;;;3.70;2.70;;;;;;;;;;5073560;28;20629;-49
2023/07/15 03:54:37;;;;;;;3.90;2.57;;;;;;;;;;5073502;28;20206;-49
2023/07/15 03:57:05;;;;;;;4.27;2.47;;;;;;;;;;5073448;28;20217;-50
2023/07/15 03:59:31;;;;;;;3.63;2.50;;;;;;;;;;5073352;28;20292;-52
2023/07/15 04:01:57;;;;;;;3.97;2.80;;;;;;;;;;5073213;28;20209;-50
2023/07/15 04:04:23;;;;;;;3.60;2.70;;;;;;;;;;5073305;28;20198;-50
2023/07/15 04:06:50;;;;;;;5.17;2.77;;;;;;;;;;5073025;28;20243;-50
2023/07/15 04:09:16;;;;;;;3.93;2.77;;;;;;;;;;5072938;28;20201;-50
2023/07/15 04:11:43;;;;;;;2.60;2.30;;;;;;;;;;5073146;28;20264;-49
2023/07/15 04:14:12;;;;;;;4.47;2.57;;;;;;;;;;5073014;28;20205;-50
2023/07/15 04:16:38;;;;;;;3.33;2.37;;;;;;;;;;5073086;28;20680;-50
2023/07/15 04:19:04;;;;;;;3.47;2.37;;;;;;;;;;5072957;28;20194;-50
2023/07/15 04:21:30;;;;;;;4.83;2.70;;;;;;;;;;5072990;28;20201;-50
2023/07/15 04:23:56;;;;;;;4.30;2.20;;;;;;;;;;5072815;28;20202;-50
2023/07/15 04:26:22;;;;;;;3.23;2.50;;;;;;;;;;5072751;28;20318;-50
2023/07/15 04:28:49;;;;;;;3.50;2.80;;;;;;;;;;5072793;28;20259;-50
2023/07/15 04:31:16;;;;;;;4.13;2.40;;;;;;;;;;5072627;28;20657;-51
2023/07/15 04:33:42;;;;;;;3.03;2.20;;;;;;;;;;5072669;28;20216;-49
2023/07/15 04:36:08;;;;;;;3.90;2.40;;;;;;;;;;5072826;28;20281;-50
2023/07/15 04:38:34;;;;;;;3.83;2.33;;;;;;;;;;5072494;28;20301;-49
2023/07/15 04:41:00;;;;;;;6.83;2.57;;;;;;;;;;5072430;28;20715;-51
2023/07/15 04:43:26;;;;;;;6.03;2.60;;;;;;;;;;5072452;28;20247;-51
2023/07/15 04:45:52;;;;;;;4.23;2.30;;;;;;;;;;5072344;28;20198;-49
2023/07/15 04:48:20;;;;;;;5.00;2.30;;;;;;;;;;5072364;28;20324;-50
2023/07/15 04:50:46;;;;;;;3.20;2.33;;;;;;;;;;5072324;28;20490;-50
2023/07/15 04:53:12;;;;;;;6.00;2.43;;;;;;;;;;5072160;28;20195;-50
2023/07/15 04:55:39;;;;;;;4.23;2.40;;;;;;;;;;5072509;28;20598;-49
2023/07/15 04:58:05;;;;;;;3.00;2.23;;;;;;;;;;5072108;28;20621;-50
2023/07/15 05:00:31;;;;;;;4.07;2.90;;;;;;;;;;5072113;28;20199;-50
2023/07/15 05:02:57;;;;;;;3.40;2.37;;;;;;;;;;5072019;28;20233;-51
2023/07/15 05:05:24;;;;;;;6.97;2.80;;;;;;;;;;5072174;28;20246;-51
2023/07/15 05:07:51;;;;;;;3.90;2.30;;;;;;;;;;5071935;28;20693;-50
2023/07/15 05:10:17;;;;;;;2.63;2.17;;;;;;;;;;5072029;28;20195;-49
2023/07/15 05:12:43;;;;;;;3.53;2.40;;;;;;;;;;5072081;28;20195;-50
2023/07/15 05:15:09;;;;;;;3.40;2.27;;;;;;;;;;5071756;28;20581;-51
2023/07/15 05:17:36;;;;;;;3.00;2.23;;;;;;;;;;5071696;28;20548;-50
2023/07/15 05:20:03;;;;;;;3.57;2.33;;;;;;;;;;5071813;28;20202;-50
2023/07/15 05:22:30;;;;;;;2.07;1.87;;;;;;;;;;5072009;28;20359;-50
2023/07/15 05:24:57;;;;;;;2.67;2.20;;;;;;;;;;5071766;28;20211;-51
2023/07/15 05:27:23;;;;;;;3.40;2.40;;;;;;;;;;5072030;28;20218;-51
2023/07/15 05:29:49;;;;;;;4.90;2.30;;;;;;;;;;5071808;28;20201;-51
2023/07/15 05:32:15;;;;;;;2.17;1.97;;;;;;;;;;5047052;28;20207;-51
2023/07/15 05:34:41;;;;;;;2.40;2.20;;;;;;;;;;5050295;28;20204;-50
2023/07/15 05:37:07;;;;;;;4.27;2.10;;;;;;;;;;5061904;28;20568;-51
2023/07/15 05:39:34;;;;;;;2.53;2.20;;;;;;;;;;5070400;28;20210;-51
2023/07/15 05:42:00;;;;;;;2.70;2.23;;;;;;;;;;5069284;28;20229;-52
2023/07/15 05:44:26;;;;;;;3.60;2.13;;;;;;;;;;5070082;28;20218;-51
2023/07/15 05:46:52;;;;;;;2.83;2.00;;;;;;;;;;5071343;28;20711;-50
2023/07/15 05:49:18;;;;;;;4.07;2.17;;;;;;;;;;5071726;28;20201;-52
2023/07/15 05:51:44;;;;;;;2.63;2.00;;;;;;;;;;5071549;28;20214;-52
2023/07/15 05:54:10;;;;;;;2.87;2.13;;;;;;;;;;5071416;28;20199;-51
2023/07/15 05:56:37;;;;;;;2.70;1.97;;;;;;;;;;5071657;28;20204;-51
2023/07/15 05:59:04;;;;;;;3.03;2.37;;;;;;;;;;5071324;28;20214;-51
2023/07/15 06:01:30;;;;;;;3.47;2.37;;;;;;;;;;5071429;28;20552;-51
2023/07/15 06:03:56;;;;;;;2.90;2.10;;;;;;;;;;5071307;28;20321;-50
2023/07/15 06:06:22;;;;;;;3.00;2.10;;;;;;;;;;5071475;28;20220;-51
2023/07/15 06:08:48;;;;;;;2.03;1.83;;;;;;;;;;5071177;28;20230;-50
2023/07/15 06:11:16;;;;;;;5.07;1.90;;;;;;;;;;5071214;28;20207;-50
2023/07/15 06:13:43;;;;;;;2.40;2.20;;;;;;;;;;5071357;28;20207;-51
2023/07/15 06:16:09;;;;;;;3.80;1.97;;;;;;;;;;5071194;28;20226;-52
2023/07/15 06:18:35;;;;;;;2.73;2.23;;;;;;;;;;5071050;28;20554;-52
2023/07/15 06:21:01;;;;;;;2.80;1.93;;;;;;;;;;5071129;28;20306;-51
2023/07/15 06:23:27;;;;;;;2.33;2.07;;;;;;;;;;5071306;28;20200;-52
2023/07/15 06:25:53;;;;;;;2.83;2.10;;;;;;;;;;5071160;28;20203;-52
2023/07/15 06:28:19;;;;;;;2.63;2.20;;;;;;;;;;5072527;28;20278;-52
2023/07/15 06:30:48;;;;;;;3.03;1.90;;;;;;;;;;5074842;28;20208;-52
2023/07/15 06:33:15;;;;;;;3.67;2.00;;;;;;;;;;5074794;28;20580;-52
2023/07/15 06:35:41;;;;;;;3.27;1.80;;;;;;;;;;5075051;28;20192;-52
2023/07/15 06:38:07;;;;;;;3.30;2.00;;;;;;;;;;5074574;28;20200;-51
2023/07/15 06:40:33;;;;;;;2.10;1.90;;;;;;;;;;5074768;28;20320;-52
2023/07/15 06:42:59;;;;;;;2.47;1.90;;;;;;;;;;5074471;28;20691;-52
2023/07/15 06:45:32;;;;;;;3.73;2.20;;;;;;;;;;5074894;28;20371;-52
2023/07/15 06:47:59;;;;;;;3.70;2.30;;;;;;;;;;5074497;28;20272;-52
2023/07/15 06:50:25;;;;;;;3.30;2.13;;;;;;;;;;5074790;28;20292;-52
2023/07/15 06:52:51;;;;;;;3.37;1.90;;;;;;;;;;5074560;28;20284;-50
2023/07/15 06:55:17;;;;;;;4.27;2.03;;;;;;;;;;5074410;28;20200;-52
2023/07/15 06:57:43;;;;;;;2.80;2.13;;;;;;;;;;5074516;28;20198;-52
2023/07/15 07:00:10;;;;;;;3.97;1.93;;;;;;;;;;5074559;28;20809;-51
2023/07/15 07:02:36;;;;;;;3.83;2.03;;;;;;;;;;5074367;28;20193;-52
2023/07/15 07:05:03;;;;;;;3.43;2.30;;;;;;;;;;5074254;28;20227;-50
2023/07/15 07:07:30;;;;;;;3.07;1.70;;;;;;;;;;5072939;28;20319;-52
2023/07/15 07:09:56;;;;;;;2.00;1.80;;;;;;;;;;5074340;28;20212;-52
2023/07/15 07:12:22;;;;;;;3.13;2.10;;;;;;;;;;5074485;28;20195;-51
2023/07/15 07:14:48;;;;;;;4.43;2.33;;;;;;;;;;5074183;28;20195;-52
2023/07/15 07:17:14;;;;;;;2.20;2.00;;;;;;;;;;5074268;28;20696;-51
2023/07/15 07:19:41;;;;;;;2.20;1.70;;;;;;;;;;5074276;28;20209;-52
2023/07/15 07:22:09;;;;;;;2.40;1.90;;;;;;;;;;5074037;28;20234;-51
2023/07/15 07:24:35;;;;;;;4.20;1.97;;;;;;;;;;5073920;28;20568;-51
2023/07/15 07:27:01;;;;;;;3.73;2.00;;;;;;;;;;5073805;28;20227;-51
2023/07/15 07:29:27;;;;;;;4.03;1.90;;;;;;;;;;5074082;28;20199;-52
2023/07/15 07:31:53;;;;;;;2.73;1.87;;;;;;;;;;5073984;28;20195;-49
2023/07/15 07:34:19;;;;;;;3.97;2.40;;;;;;;;;;5073804;28;20597;-49
2023/07/15 07:36:45;;;;;;;2.43;1.93;;;;;;;;;;5073754;28;20207;-50
2023/07/15 07:39:13;;;;;;;2.27;1.93;;;;;;;;;;5073327;28;20195;-50
2023/07/15 07:41:39;;;;;;;2.67;1.93;;;;;;;;;;5073933;28;20216;-50
2023/07/15 07:44:05;;;;;;;2.43;1.80;;;;;;;;;;5073395;28;20673;-49
2023/07/15 07:46:31;;;;;;;2.00;1.63;;;;;;;;;;5073646;28;20199;-50
2023/07/15 07:48:57;;;;;;;2.70;2.10;;;;;;;;;;5073535;28;20262;-50
2023/07/15 07:51:23;;;;;;;4.53;2.23;;;;;;;;;;5073772;28;20204;-49
2023/07/15 07:53:49;;;;;;;2.80;1.93;;;;;;;;;;5073814;28;20196;-50
2023/07/15 07:56:16;;;;;;;3.37;2.00;;;;;;;;;;5073304;28;20292;-49
2023/07/15 07:58:42;;;;;;;2.97;1.70;;;;;;;;;;5073423;28;20201;-49
2023/07/15 08:01:08;;;;;;;3.20;1.80;;;;;;;;;;5073258;28;20219;-50
2023/07/15 08:03:34;;;;;;;5.63;2.03;;;;;;;;;;5073322;28;20204;-51
2023/07/15 08:06:00;;;;;;;3.30;1.97;;;;;;;;;;5073356;28;20219;-52
2023/07/15 08:08:26;;;;;;;2.27;2.07;;;;;;;;;;5073128;28;20229;-52
2023/07/15 08:10:53;;;;;;;3.83;1.87;;;;;;;;;;5073205;28;20190;-50
2023/07/15 08:13:20;;;;;;;2.03;1.83;;;;;;;;;;5073088;28;20221;-49
2023/07/15 08:15:46;;;;;;;3.53;2.07;;;;;;;;;;5072912;28;20296;-50
2023/07/15 08:18:12;;;;;;;3.33;2.00;;;;;;;;;;5072933;28;20219;-50
2023/07/15 08:20:41;;;;;;;3.13;1.80;;;;;;;;;;5073079;28;20206;-49
2023/07/15 08:23:07;;;;;;;2.80;1.80;;;;;;;;;;5072945;28;20286;-50
2023/07/15 08:25:33;;;;;;;4.03;1.80;;;;;;;;;;5072974;28;20686;-49
2023/07/15 08:27:59;;;;;;;2.93;1.90;;;;;;;;;;5072878;28;20305;-48
2023/07/15 08:30:26;;;;;;;3.20;1.90;;;;;;;;;;5073079;28;20204;-50
2023/07/15 08:32:52;;;;;;;2.63;2.03;;;;;;;;;;5072910;28;20213;-50
2023/07/15 08:35:19;;;;;;;2.23;1.47;;;;;;;;;;5072893;28;20274;-49
2023/07/15 08:37:45;;;;;;;2.73;1.70;;;;;;;;;;5072658;28;20199;-49
2023/07/15 08:40:11;;;;;;;5.20;1.70;;;;;;;;;;5072658;28;20206;-49
2023/07/15 08:42:37;;;;;;;3.40;1.70;;;;;;;;;;5072548;28;20709;-49
2023/07/15 08:45:04;;;;;;;3.17;2.00;;;;;;;;;;5072518;28;20210;-49
2023/07/15 08:47:31;;;;;;;5.13;1.83;;;;;;;;;;5071788;28;20222;-49
2023/07/15 08:49:59;;;;;;;2.20;2.00;;;;;;;;;;5072105;28;20206;-49
2023/07/15 08:52:26;;;;;;;2.33;1.80;;;;;;;;;;5072073;28;20207;-49
2023/07/15 08:54:53;;;;;;;2.67;1.97;;;;;;;;;;5072691;28;20203;-50
2023/07/15 08:57:20;;;;;;;4.00;1.70;;;;;;;;;;5070191;28;20616;-49
2023/07/15 08:59:47;;;;;;;3.77;2.10;;;;;;;;;;5072087;28;20221;-49
2023/07/15 09:02:13;;;;;;;6.70;2.07;;;;;;;;;;5071768;28;20193;-50
2023/07/15 09:04:41;;;;;;;3.93;2.20;;;;;;;;;;5072053;28;20225;-50
2023/07/15 09:07:08;;;;;;;5.00;1.87;;;;;;;;;;5071849;28;20223;-50
2023/07/15 09:09:35;;;;;;;2.67;1.83;;;;;;;;;;5071669;28;20225;-49
2023/07/15 09:12:01;;;;;;;3.70;2.33;;;;;;;;;;5071745;28;20218;-49
2023/07/15 09:14:27;;;;;;;4.47;2.30;;;;;;;;;;5071878;28;20234;-49
2023/07/15 09:16:53;;;;;;;2.47;2.10;;;;;;;;;;5071864;28;20198;-50
2023/07/15 09:19:21;;;;;;;7.47;2.00;;;;;;;;;;5071522;28;20199;-49
2023/07/15 09:21:52;;;;;;;2.30;1.83;;;;;;;;;;5071657;28;20195;-49
2023/07/15 09:24:18;;;;;;;3.43;1.80;;;;;;;;;;5071484;28;20570;-49
2023/07/15 09:26:47;;;;;;;3.27;1.90;;;;;;;;;;5071629;28;20757;-49
2023/07/15 09:29:13;;;;;;;4.60;1.87;;;;;;;;;;5071504;28;20237;-49
2023/07/15 09:31:39;;;;;;;3.70;2.00;;;;;;;;;;5071984;28;20250;-50
2023/07/15 09:34:05;;;;;;;2.47;1.77;;;;;;;;;;5071920;28;20196;-50
2023/07/15 09:36:32;;;;;;;3.80;1.90;;;;;;;;;;5071916;28;20203;-50
2023/07/15 09:39:03;;;;;;;8.33;1.93;;;;;;;;;;5071772;28;20196;-49
2023/07/15 09:41:29;;;;;;;3.27;1.70;;;;;;;;;;5072008;28;20212;-49
2023/07/15 09:43:55;;;;;;;4.17;2.03;;;;;;;;;;5071670;28;20237;-49
2023/07/15 09:46:22;;;;;;;4.87;2.00;;;;;;;;;;5071720;28;20201;-50
2023/07/15 09:48:49;;;;;;;3.20;1.80;;;;;;;;;;5071665;28;20225;-51
2023/07/15 09:51:16;;;;;;;2.60;1.70;;;;;;;;;;5069357;28;20192;-50
2023/07/15 09:53:43;;;;;;;5.23;1.60;;;;;;;;;;5071318;28;20201;-50
2023/07/15 09:56:11;;;;;;;2.93;1.80;;;;;;;;;;5071131;28;20201;-51
2023/07/15 09:58:39;;;;;;;2.10;1.70;;;;;;;;;;5071238;28;20278;-51
2023/07/15 10:01:09;;;;;;;4.70;2.00;;;;;;;;;;5071100;28;20200;-50
2023/07/15 10:03:42;;;;;;;2.50;1.90;;;;;;;;;;5074804;28;20207;-50
2023/07/15 10:06:08;;;;;;;2.40;1.83;;;;;;;;;;5075213;28;20228;-50
2023/07/15 10:08:35;;;;;;;2.60;1.73;;;;;;;;;;5075164;28;20258;-51
2023/07/15 10:11:01;;;;;;;3.97;1.80;;;;;;;;;;5075229;28;20568;-50
2023/07/15 10:13:29;;;;;;;2.87;1.77;;;;;;;;;;5075384;28;20203;-50
2023/07/15 10:15:55;;;;;;;2.30;1.90;;;;;;;;;;5075328;28;20202;-50
2023/07/15 10:18:22;;;;;;;2.33;1.90;;;;;;;;;;5074885;28;20256;-50
2023/07/15 10:20:54;;;;;;;3.77;2.10;;;;;;;;;;5075068;28;20598;-50
2023/07/15 10:23:24;;;;;;;4.03;2.00;;;;;;;;;;5074874;28;20203;-50
2023/07/15 10:25:57;;;;;;;3.23;1.90;;;;;;;;;;5074899;28;20609;-50
2023/07/15 10:28:23;;;;;;;2.13;1.60;;;;;;;;;;5074888;28;20285;-50
2023/07/15 10:31:04;;;;;;;2.77;2.00;;;;;;;;;;5074824;28;20609;-50
2023/07/15 10:33:32;;;;;;;2.93;1.80;;;;;;;;;;5074789;28;20298;-51
2023/07/15 10:35:58;;;;;;;3.47;1.60;;;;;;;;;;5074682;28;20198;-50
2023/07/15 10:38:25;;;;;;;6.63;1.93;;;;;;;;;;5075085;28;20251;-51
2023/07/15 10:40:52;;;;;;;3.97;1.90;;;;;;;;;;5074807;28;20530;-50
2023/07/15 10:43:19;;;;;;;4.07;1.93;;;;;;;;;;5074392;28;20264;-50
2023/07/15 10:45:51;;;;;;;2.50;1.77;;;;;;;;;;5074285;28;20584;-50
2023/07/15 10:48:17;;;;;;;3.57;1.90;;;;;;;;;;5074317;28;20523;-49
2023/07/15 10:50:46;;;;;;;3.23;1.80;;;;;;;;;;5074486;28;20205;-51
2023/07/15 10:53:20;;;;;;;2.13;1.80;;;;;;;;;;5074286;28;20244;-50
2023/07/15 10:55:46;;;;;;;3.17;2.20;;;;;;;;;;5074430;28;20284;-51
2023/07/15 10:58:12;;;;;;;2.50;2.03;;;;;;;;;;5074276;28;20613;-50
2023/07/15 11:00:38;;;;;;;2.77;1.70;;;;;;;;;;5074125;28;20273;-49
2023/07/15 11:03:05;;;;;;;4.67;2.03;;;;;;;;;;5074655;28;20193;-50
2023/07/15 11:05:31;;;;;;;3.07;1.83;;;;;;;;;;5074599;28;20218;-51
2023/07/15 11:07:59;;;;;;;4.63;2.33;;;;;;;;;;5074383;28;20596;-49
2023/07/15 11:10:32;;;;;;;4.17;1.90;;;;;;;;;;5074539;28;20202;-50
2023/07/15 11:12:58;;;;;;;2.17;1.97;;;;;;;;;;5074362;28;20545;-50
2023/07/15 11:15:29;;;;;;;3.60;2.03;;;;;;;;;;5073954;28;20198;-50
2023/07/15 11:17:55;;;;;;;6.53;2.20;;;;;;;;;;5074446;28;20267;-51
2023/07/15 11:20:21;;;;;;;4.20;1.90;;;;;;;;;;5074226;28;20200;-50
2023/07/15 11:22:47;;;;;;;5.77;1.77;;;;;;;;;;5074096;28;20700;-49
2023/07/15 11:25:14;;;;;;;6.27;1.90;;;;;;;;;;5074230;28;20550;-51
2023/07/15 11:27:40;;;;;;;4.63;2.00;;;;;;;;;;5074323;28;20219;-51
2023/07/15 11:30:07;;;;;;;4.07;1.60;;;;;;;;;;5074096;28;20226;-51
2023/07/15 11:32:33;;;;;;;2.07;1.87;;;;;;;;;;5073965;28;20900;-50
2023/07/15 11:35:09;;;;;;;3.77;1.90;;;;;;;;;;5073938;28;20198;-50
2023/07/15 11:37:41;;;;;;;4.10;1.83;;;;;;;;;;5071990;28;20220;-50
2023/07/15 11:40:14;;;;;;;5.40;2.00;;;;;;;;;;5073387;28;20301;-50
2023/07/15 11:42:41;;;;;;;4.03;2.00;;;;;;;;;;5073215;28;20240;-50
2023/07/15 11:45:08;;;;;;;2.30;1.80;;;;;;;;;;5073504;28;20222;-50
2023/07/15 11:47:34;;;;;;;6.93;2.17;;;;;;;;;;5073409;28;20225;-51
2023/07/15 11:50:00;;;;;;;2.90;1.80;;;;;;;;;;5073264;28;20687;-50
2023/07/15 11:52:27;;;;;;;5.30;1.70;;;;;;;;;;5073363;28;20235;-50
2023/07/15 11:54:54;;;;;;;3.73;2.10;;;;;;;;;;5073309;28;20671;-50
2023/07/15 11:57:26;;;;;;;2.37;2.17;;;;;;;;;;5073130;28;20206;-49
2023/07/15 11:59:53;;;;;;;3.17;2.00;;;;;;;;;;5073322;28;20296;-48
2023/07/15 12:02:20;;;;;;;2.13;2.00;;;;;;;;;;5073096;28;20218;-49
2023/07/15 12:04:46;;;;;;;3.53;2.00;;;;;;;;;;5072998;28;20306;-49
2023/07/15 12:07:12;;;;;;;2.30;2.10;;;;;;;;;;5073256;28;20200;-50
2023/07/15 12:09:39;;;;;;;2.70;2.33;;;;;;;;;;5073446;28;20570;-50
2023/07/15 12:12:05;;;;;;;2.40;2.20;;;;;;;;;;5073327;28;20207;-50
2023/07/15 12:14:33;;;;;;;2.27;2.07;;;;;;;;;;5073270;28;20219;-49
2023/07/15 12:17:02;;;;;;;3.30;2.43;;;;;;;;;;5072905;28;20210;-48
2023/07/15 12:19:31;;;;;;;3.47;2.30;;;;;;;;;;5073111;28;20207;-49
2023/07/15 12:21:57;;;;;;;4.93;2.10;;;;;;;;;;5072814;28;20205;-49
2023/07/15 12:24:23;;;;;;;3.60;2.20;;;;;;;;;;5073183;28;20199;-49
2023/07/15 12:26:49;;;;;;;5.20;2.40;;;;;;;;;;5071702;28;20203;-49
2023/07/15 12:29:15;;;;;;;3.30;2.47;;;;;;;;;;5072567;28;20306;-48
2023/07/15 12:31:41;;;;;;;3.30;2.60;;;;;;;;;;5072544;28;20204;-50
2023/07/15 12:34:09;;;;;;;3.80;2.37;;;;;;;;;;5072664;28;20233;-49
2023/07/15 12:36:35;;;;;;;3.90;2.43;;;;;;;;;;5072857;28;20261;-50
2023/07/15 12:39:00;;;;;;;4.00;2.40;;;;;;;;;;5072325;28;20199;-49
2023/07/15 12:41:27;;;;;;;3.03;2.40;;;;;;;;;;5072718;28;20667;-50
2023/07/15 12:43:53;;;;;;;3.00;2.40;;;;;;;;;;5072553;28;20617;-49
2023/07/15 12:46:19;;;;;;;2.73;2.30;;;;;;;;;;5072348;28;20200;-49
2023/07/15 12:48:45;;;;;;;2.50;2.30;;;;;;;;;;5072190;28;20230;-49
2023/07/15 12:51:13;;;;;;;2.47;2.27;;;;;;;;;;5072199;28;20203;-50
2023/07/15 12:53:39;;;;;;;2.40;2.20;;;;;;;;;;5072608;28;20195;-50
2023/07/15 12:56:11;;;;;;;3.10;2.10;;;;;;;;;;5072241;28;20195;-51
2023/07/15 12:58:37;;;;;;;3.07;2.43;;;;;;;;;;5072382;28;20197;-51
2023/07/15 13:01:03;;;;;;;2.40;2.20;;;;;;;;;;5072240;28;20235;-51
2023/07/15 13:03:29;;;;;;;2.23;2.03;;;;;;;;;;5072152;28;20223;-49
2023/07/15 13:05:55;;;;;;;3.67;2.20;;;;;;;;;;5072178;28;20269;-49
2023/07/15 13:08:22;;;;;;;4.07;1.87;;;;;;;;;;5071722;28;20224;-49
2023/07/15 13:10:48;;;;;;;2.53;2.10;;;;;;;;;;5072098;28;20253;-51
2023/07/15 13:13:14;;;;;;;2.40;2.17;;;;;;;;;;5071951;28;20188;-50
2023/07/15 13:15:44;;;;;;;2.90;2.23;;;;;;;;;;5072256;28;20276;-50
2023/07/15 13:18:10;;;;;;;2.30;2.10;;;;;;;;;;5071904;28;20681;-51
2023/07/15 13:20:36;;;;;;;2.17;2.00;;;;;;;;;;5071999;28;20200;-50
2023/07/15 13:23:02;;;;;;;2.50;1.90;;;;;;;;;;5071693;28;20249;-50
2023/07/15 13:25:29;;;;;;;2.27;2.07;;;;;;;;;;5071897;28;20252;-51
2023/07/15 13:27:55;;;;;;;3.27;1.93;;;;;;;;;;5071887;28;20241;-50
2023/07/15 13:30:22;;;;;;;2.93;2.10;;;;;;;;;;5071752;28;20283;-50
2023/07/15 13:32:48;;;;;;;3.77;2.23;;;;;;;;;;5071827;28;20200;-50
2023/07/15 13:35:14;;;;;;;1.83;1.70;;;;;;;;;;5071613;28;20207;-52
2023/07/15 13:37:40;;;;;;;2.33;1.70;;;;;;;;;;5071493;28;20270;-52
2023/07/15 13:40:09;;;;;;;3.17;1.80;;;;;;;;;;5071657;28;20202;-53
2023/07/15 13:42:39;;;;;;;4.43;1.63;;;;;;;;;;5071512;28;20665;-50
2023/07/15 13:45:05;;;;;;;3.43;1.70;;;;;;;;;;5071556;28;20211;-51
2023/07/15 13:47:31;;;;;;;5.70;1.77;;;;;;;;;;5071608;28;20231;-50
2023/07/15 13:49:57;;;;;;;2.47;1.70;;;;;;;;;;5071821;28;20208;-52
2023/07/15 13:52:24;;;;;;;2.47;1.60;;;;;;;;;;5071542;28;20198;-51
2023/07/15 13:54:50;;;;;;;1.60;1.50;;;;;;;;;;5071699;28;20202;-50
2023/07/15 13:57:16;;;;;;;3.60;1.53;;;;;;;;;;5071642;28;20281;-50
2023/07/15 13:59:44;;;;;;;2.17;1.80;;;;;;;;;;5069795;28;20213;-50
2023/07/15 14:02:14;;;;;;;1.37;1.27;;;;;;;;;;5070742;28;20208;-49
2023/07/15 14:04:40;;;;;;;2.20;1.43;;;;;;;;;;5071212;28;20695;-51
2023/07/15 14:07:06;;;;;;;1.50;1.40;;;;;;;;;;5070935;28;20199;-50
2023/07/15 14:09:32;;;;;;;1.40;1.30;;;;;;;;;;5071282;28;20596;-49
2023/07/15 14:11:58;;;;;;;2.40;1.30;;;;;;;;;;5071214;28;20616;-50
2023/07/15 14:14:24;;;;;;;1.53;1.43;;;;;;;;;;5071039;28;20283;-50
2023/07/15 14:16:51;;;;;;;1.30;1.20;;;;;;;;;;5071332;28;20277;-50
2023/07/15 14:19:17;;;;;;;1.83;1.40;;;;;;;;;;5071467;28;20188;-51
2023/07/15 14:21:43;;;;;;;1.97;1.50;;;;;;;;;;5071097;28;20217;-51
2023/07/15 14:24:09;;;;;;;2.00;1.77;;;;;;;;;;5071173;28;20256;-50
2023/07/15 14:26:35;;;;;;;1.70;1.60;;;;;;;;;;5071387;28;20199;-50
2023/07/15 14:29:01;;;;;;;1.80;1.70;;;;;;;;;;5071296;28;20254;-50
2023/07/15 14:31:27;;;;;;;3.13;1.83;;;;;;;;;;5071352;28;20199;-50
2023/07/15 14:33:55;;;;;;;1.63;1.30;;;;;;;;;;5071381;28;20191;-50
2023/07/15 14:36:21;;;;;;;2.23;1.47;;;;;;;;;;5071053;28;20605;-50
2023/07/15 14:38:47;;;;;;;1.53;1.27;;;;;;;;;;5071186;28;20237;-52
2023/07/15 14:41:13;;;;;;;1.50;1.40;;;;;;;;;;5070951;28;20267;-50